Time;durP1;ratioP1;P1;durP2;ratioP2;P2;SDS_P1;SDS_P2;PMS_P1;PMS_P2;Temp;Humidity;BMP_temperature;BMP_pressure;BME280_temperature;BME280_humidity;BME280_pressure;Samples;Min_cycle;Max_cycle;Signal;HPM_P1;HPM_P2
2023/03/06 00:00:24;;;;;;;4.75;1.02;;;3.60;99.90;;;;;;5031327;28;20128;-80
2023/03/06 00:02:50;;;;;;;6.15;1.10;;;3.60;99.90;;;;;;5029308;28;20041;-79
2023/03/06 00:05:16;;;;;;;7.18;1.25;;;3.50;99.90;;;;;;5014963;28;20500;-79
2023/03/06 00:07:42;;;;;;;6.13;1.65;;;4.30;99.90;;;;;;5030633;28;20088;-79
2023/03/06 00:10:13;;;;;;;2.10;1.00;;;3.60;99.90;;;;;;5031080;28;20432;-79
2023/03/06 00:12:38;;;;;;;3.38;1.15;;;3.20;99.90;;;;;;5014069;28;20449;-79
2023/03/06 00:15:05;;;;;;;1.48;0.80;;;3.70;99.90;;;;;;5014675;28;20042;-79
2023/03/06 00:17:30;;;;;;;3.10;0.88;;;3.00;99.90;;;;;;5012004;28;20041;-79
2023/03/06 00:19:56;;;;;;;3.10;1.02;;;3.80;99.90;;;;;;4998089;28;20397;-79
2023/03/06 00:22:22;;;;;;;1.42;0.90;;;2.70;99.90;;;;;;5030770;28;20045;-79
2023/03/06 00:24:47;;;;;;;1.10;0.60;;;2.60;99.90;;;;;;5014178;28;20041;-78
2023/03/06 00:27:13;;;;;;;2.70;1.03;;;2.60;99.90;;;;;;5030623;28;20075;-78
2023/03/06 00:29:39;;;;;;;3.38;0.75;;;2.40;99.90;;;;;;5030290;28;20037;-79
2023/03/06 00:32:05;;;;;;;1.90;0.90;;;2.30;99.90;;;;;;5014336;28;20068;-79
2023/03/06 00:34:30;;;;;;;1.23;0.73;;;2.30;99.90;;;;;;5030210;28;20042;-78
2023/03/06 00:36:56;;;;;;;1.40;0.83;;;3.30;99.90;;;;;;5030466;28;20033;-78
2023/03/06 00:39:22;;;;;;;3.70;1.00;;;3.50;99.90;;;;;;4995660;28;20371;-78
2023/03/06 00:41:48;;;;;;;1.10;0.82;;;2.40;99.90;;;;;;5030466;28;20042;-79
2023/03/06 00:44:13;;;;;;;4.73;1.13;;;2.40;99.90;;;;;;5030767;28;20042;-79
2023/03/06 00:46:39;;;;;;;1.87;0.97;;;2.50;99.90;;;;;;5013704;28;20048;-79
2023/03/06 00:49:05;;;;;;;1.83;1.13;;;2.60;99.90;;;;;;5030475;28;20664;-79
2023/03/06 00:51:30;;;;;;;1.00;0.80;;;2.50;99.90;;;;;;5030010;28;20044;-79
2023/03/06 00:53:56;;;;;;;3.70;1.10;;;2.60;99.90;;;;;;5013542;28;20293;-78
2023/03/06 00:56:22;;;;;;;1.37;1.10;;;2.70;99.90;;;;;;5030052;28;20288;-79
2023/03/06 00:58:47;;;;;;;3.93;1.20;;;2.70;99.90;;;;;;5030020;28;20291;-78
2023/03/06 01:01:13;;;;;;;1.87;1.00;;;1.70;99.90;;;;;;5027801;28;20316;-77
2023/03/06 01:03:39;;;;;;;1.30;1.00;;;3.70;99.90;;;;;;5029574;28;20041;-78
2023/03/06 01:06:05;;;;;;;3.45;1.40;;;2.80;99.90;;;;;;5013587;28;20071;-78
2023/03/06 01:08:30;;;;;;;3.70;0.98;;;2.80;99.90;;;;;;5029656;28;20436;-78
2023/03/06 01:10:56;;;;;;;4.18;1.13;;;2.90;99.90;;;;;;5013652;28;20371;-78
2023/03/06 01:13:22;;;;;;;4.50;1.35;;;3.30;99.90;;;;;;5029974;28;20037;-78
2023/03/06 01:15:47;;;;;;;2.13;1.20;;;2.90;99.90;;;;;;5013085;28;20037;-78
2023/03/06 01:18:14;;;;;;;3.25;1.30;;;2.90;99.90;;;;;;5013671;28;20052;-79
2023/03/06 01:20:40;;;;;;;2.20;1.05;;;3.80;99.90;;;;;;5012986;28;20048;-79
2023/03/06 01:23:05;;;;;;;2.53;1.05;;;3.40;99.90;;;;;;5029728;28;20080;-79
2023/03/06 01:25:31;;;;;;;3.40;1.10;;;3.00;99.90;;;;;;5029187;28;20041;-79
2023/03/06 01:27:57;;;;;;;2.37;1.43;;;3.00;99.90;;;;;;5029217;28;20304;-79
2023/03/06 01:30:22;;;;;;;4.55;1.42;;;3.00;99.90;;;;;;5013013;28;20041;-79
2023/03/06 01:32:48;;;;;;;2.07;1.00;;;3.10;99.90;;;;;;5029086;28;20874;-79
2023/03/06 01:35:14;;;;;;;2.38;0.98;;;2.90;99.90;;;;;;5029400;28;20334;-79
2023/03/06 01:37:40;;;;;;;3.75;1.20;;;3.00;99.90;;;;;;4996306;28;20087;-79
2023/03/06 01:40:08;;;;;;;2.67;1.00;;;3.00;99.90;;;;;;5029050;28;20072;-79
2023/03/06 01:42:34;;;;;;;5.15;1.25;;;3.00;99.90;;;;;;5012234;28;20053;-79
2023/03/06 01:45:19;;;;;;;2.80;1.23;;;3.60;99.90;;;;;;5029230;28;20051;-79
2023/03/06 01:47:45;;;;;;;3.05;1.38;;;3.20;99.90;;;;;;4988865;28;20042;-79
2023/03/06 01:50:11;;;;;;;1.63;1.13;;;3.90;99.90;;;;;;5012711;28;20043;-79
2023/03/06 01:52:57;;;;;;;2.85;1.13;;;3.80;99.90;;;;;;5028481;28;20049;-79
2023/03/06 01:55:28;;;;;;;1.95;1.27;;;2.90;99.90;;;;;;5028813;28;20034;-79
2023/03/06 01:57:59;;;;;;;4.30;1.30;;;2.90;99.90;;;;;;5028398;28;20060;-79
2023/03/06 02:00:26;;;;;;;2.58;1.02;;;3.00;99.90;;;;;;5028894;28;20076;-79
2023/03/06 02:03:09;;;;;;;4.03;1.60;;;2.90;99.90;;;;;;5012141;28;20041;-79
2023/03/06 02:05:35;;;;;;;1.85;1.20;;;3.60;99.90;;;;;;5028005;28;20047;-79
2023/03/06 02:08:02;;;;;;;1.83;1.20;;;3.00;99.90;;;;;;5010217;28;20045;-79
2023/03/06 02:10:29;;;;;;;4.15;1.10;;;3.60;99.90;;;;;;5028790;28;20052;-79
2023/03/06 02:12:54;;;;;;;2.40;1.17;;;2.90;99.90;;;;;;5028243;28;20041;-79
2023/03/06 02:15:23;;;;;;;3.42;1.20;;;2.80;99.90;;;;;;5012594;28;20037;-79
2023/03/06 02:17:50;;;;;;;3.15;1.20;;;2.80;99.90;;;;;;5012213;28;20045;-79
2023/03/06 02:20:28;;;;;;;1.88;1.00;;;2.80;99.90;;;;;;5029030;28;20042;-79
2023/03/06 02:23:12;;;;;;;1.05;0.80;;;2.80;99.90;;;;;;5028545;28;20053;-79
2023/03/06 02:25:42;;;;;;;1.85;0.80;;;2.80;99.90;;;;;;5028658;28;20072;-79
2023/03/06 02:28:11;;;;;;;1.45;0.90;;;2.70;99.90;;;;;;5009753;28;20593;-78
2023/03/06 02:30:38;;;;;;;1.42;1.10;;;3.50;99.90;;;;;;5011831;28;20033;-79
2023/03/06 02:33:04;;;;;;;0.88;0.80;;;2.40;99.90;;;;;;5028526;28;20041;-79
2023/03/06 02:35:34;;;;;;;;;;;2.40;99.90;;;;;;5010230;28;20048;-79
2023/03/06 02:38:08;;;;;;;1.45;0.70;;;2.30;99.90;;;;;;5061117;28;19921;-79
2023/03/06 02:40:34;;;;;;;0.77;0.70;;;2.30;99.90;;;;;;5028430;28;20128;-79
2023/03/06 02:43:00;;;;;;;1.27;0.80;;;2.80;99.90;;;;;;5011741;28;20123;-79
2023/03/06 02:45:32;;;;;;;;;;;2.20;99.90;;;;;;5012242;28;20044;-79
2023/03/06 02:47:58;;;;;;;0.80;0.80;;;2.10;99.90;;;;;;5011376;28;19921;-79
2023/03/06 02:50:24;;;;;;;1.42;0.63;;;2.10;99.90;;;;;;5011705;28;20034;-79
2023/03/06 02:52:49;;;;;;;1.17;0.70;;;2.20;99.90;;;;;;5027992;28;20084;-79
2023/03/06 02:55:15;;;;;;;2.33;1.17;;;3.00;99.90;;;;;;5028280;28;20049;-79
2023/03/06 02:57:41;;;;;;;1.52;1.20;;;2.40;99.90;;;;;;5028009;28;20288;-79
2023/03/06 03:00:08;;;;;;;1.90;1.33;;;3.20;99.90;;;;;;5027865;28;20092;-79
2023/03/06 03:02:34;;;;;;;2.28;1.42;;;2.10;99.90;;;;;;5027836;28;20038;-79
2023/03/06 03:04:59;;;;;;;3.13;1.80;;;2.30;99.90;;;;;;5027222;28;20564;-79
2023/03/06 03:07:25;;;;;;;3.47;2.08;;;2.10;99.90;;;;;;5028159;28;20054;-79
2023/03/06 03:09:51;;;;;;;4.03;2.00;;;2.10;99.90;;;;;;5011447;28;20047;-79
2023/03/06 03:12:16;;;;;;;3.35;2.22;;;2.10;99.90;;;;;;5027852;28;20080;-79
2023/03/06 03:14:42;;;;;;;4.67;3.00;;;2.10;99.90;;;;;;5011021;28;20432;-79
2023/03/06 03:17:08;;;;;;;5.32;2.80;;;2.10;99.90;;;;;;5011005;28;20458;-79
2023/03/06 03:19:33;;;;;;;4.13;2.88;;;2.10;99.90;;;;;;5030975;28;20059;-78
2023/03/06 03:21:59;;;;;;;4.45;3.08;;;2.10;99.90;;;;;;5014866;28;20049;-78
2023/03/06 03:24:25;;;;;;;4.97;2.80;;;2.00;99.90;;;;;;5031721;28;20128;-78
2023/03/06 03:26:51;;;;;;;6.15;2.92;;;2.00;99.90;;;;;;5014423;28;20284;-78
2023/03/06 03:29:17;;;;;;;5.82;2.92;;;2.00;99.90;;;;;;4998625;28;20477;-78
2023/03/06 03:31:43;;;;;;;4.63;3.03;;;2.00;99.90;;;;;;5030813;28;20068;-78
2023/03/06 03:34:09;;;;;;;4.53;2.83;;;2.00;99.90;;;;;;5015215;28;20470;-78
2023/03/06 03:36:34;;;;;;;5.13;2.63;;;2.00;99.90;;;;;;5008865;28;20033;-78
2023/03/06 03:39:00;;;;;;;6.25;2.63;;;1.90;99.90;;;;;;5014439;28;20291;-79
2023/03/06 03:41:26;;;;;;;3.63;1.98;;;2.00;99.90;;;;;;5015010;28;20042;-79
2023/03/06 03:43:51;;;;;;;5.47;2.25;;;2.00;99.90;;;;;;5031334;28;20489;-79
2023/03/06 03:46:18;;;;;;;2.40;1.70;;;2.10;99.90;;;;;;5015252;28;20124;-79
2023/03/06 03:48:43;;;;;;;;;;;1.90;99.90;;;;;;5031231;28;20056;-79
2023/03/06 03:51:11;;;;;;;1.70;1.20;;;3.10;99.90;;;;;;5014944;28;19917;-79
2023/03/06 03:53:38;;;;;;;1.38;0.88;;;1.80;99.90;;;;;;5030936;28;20059;-79
2023/03/06 03:56:04;;;;;;;3.15;1.48;;;1.80;99.90;;;;;;5014324;28;20080;-79
2023/03/06 03:58:30;;;;;;;1.60;0.90;;;1.70;99.90;;;;;;5014370;28;20136;-79
2023/03/06 04:00:55;;;;;;;2.15;1.10;;;1.70;99.90;;;;;;5030774;28;20542;-79
2023/03/06 04:03:21;;;;;;;2.05;1.10;;;1.70;99.90;;;;;;5031039;28;20138;-79
2023/03/06 04:05:47;;;;;;;2.33;1.00;;;1.60;99.90;;;;;;5014298;28;20073;-79
2023/03/06 04:08:13;;;;;;;1.52;0.75;;;1.60;99.90;;;;;;5030385;28;20531;-79
2023/03/06 04:10:38;;;;;;;2.57;0.93;;;2.00;99.90;;;;;;5014605;28;20124;-79
2023/03/06 04:13:05;;;;;;;2.28;1.10;;;1.60;99.90;;;;;;5030220;28;20533;-79
2023/03/06 04:15:31;;;;;;;2.50;1.20;;;1.50;99.90;;;;;;5014543;28;20071;-79
2023/03/06 04:17:57;;;;;;;3.08;1.15;;;1.70;99.90;;;;;;5030441;28;20038;-79
2023/03/06 04:20:22;;;;;;;3.17;1.20;;;1.50;99.90;;;;;;4998251;28;20052;-77
2023/03/06 04:22:48;;;;;;;1.17;0.90;;;1.50;99.90;;;;;;5013884;28;20393;-77
2023/03/06 04:25:14;;;;;;;1.50;1.00;;;1.50;99.90;;;;;;5030643;28;20069;-78
2023/03/06 04:27:40;;;;;;;3.10;1.40;;;2.50;99.90;;;;;;5030322;28;20363;-77
2023/03/06 04:30:06;;;;;;;4.95;1.30;;;1.90;99.90;;;;;;5029524;28;20381;-78
2023/03/06 04:32:32;;;;;;;3.30;1.20;;;1.60;99.90;;;;;;5030396;28;20124;-78
2023/03/06 04:34:58;;;;;;;0.88;0.80;;;1.60;99.90;;;;;;5014224;28;20124;-78
2023/03/06 04:37:25;;;;;;;3.80;1.17;;;1.90;99.90;;;;;;5030537;28;20033;-78
2023/03/06 04:39:51;;;;;;;4.22;1.00;;;1.70;99.90;;;;;;5029870;28;21408;-78
2023/03/06 04:42:17;;;;;;;4.18;1.20;;;1.70;99.90;;;;;;5014164;28;20037;-78
2023/03/06 04:44:43;;;;;;;4.70;1.48;;;1.70;99.90;;;;;;5030377;28;20156;-78
2023/03/06 04:47:09;;;;;;;2.75;1.10;;;1.80;99.90;;;;;;5013709;28;20048;-78
2023/03/06 04:49:35;;;;;;;1.75;1.10;;;1.80;99.90;;;;;;5013880;28;20033;-78
2023/03/06 04:52:00;;;;;;;2.78;1.30;;;1.80;99.90;;;;;;5029670;28;20033;-78
2023/03/06 04:54:26;;;;;;;1.88;1.25;;;1.80;99.90;;;;;;5030130;28;20401;-78
2023/03/06 04:56:52;;;;;;;2.43;1.30;;;1.90;99.90;;;;;;5012972;28;20034;-78
2023/03/06 04:59:17;;;;;;;3.13;1.13;;;1.90;99.90;;;;;;5030109;28;20269;-78
2023/03/06 05:01:43;;;;;;;2.83;1.23;;;1.90;99.90;;;;;;5029927;28;20280;-78
2023/03/06 05:04:09;;;;;;;4.77;1.30;;;2.80;99.90;;;;;;5029546;28;20041;-79
2023/03/06 05:06:34;;;;;;;2.73;1.30;;;1.90;99.90;;;;;;5013526;28;20298;-78
2023/03/06 05:09:00;;;;;;;2.08;1.20;;;1.90;99.90;;;;;;5029333;28;20456;-78
2023/03/06 05:11:26;;;;;;;2.83;1.07;;;1.90;99.90;;;;;;5013209;28;20037;-78
2023/03/06 05:13:52;;;;;;;2.45;1.20;;;2.00;99.90;;;;;;5029500;28;20387;-79
2023/03/06 05:16:17;;;;;;;2.28;1.20;;;2.50;99.90;;;;;;5030026;28;20037;-80
2023/03/06 05:18:43;;;;;;;1.97;1.10;;;1.90;99.90;;;;;;5014256;28;20132;-79
2023/03/06 05:21:09;;;;;;;4.90;1.63;;;1.90;99.90;;;;;;5012582;28;20288;-78
2023/03/06 05:23:37;;;;;;;1.90;1.20;;;2.50;99.90;;;;;;5029317;28;20037;-78
2023/03/06 05:26:11;;;;;;;1.52;1.02;;;1.90;99.90;;;;;;5029193;28;20380;-79
2023/03/06 05:28:37;;;;;;;1.67;1.02;;;2.10;99.90;;;;;;5029087;28;20490;-77
2023/03/06 05:31:03;;;;;;;;;;;2.70;99.90;;;;;;5029461;28;20397;-77
2023/03/06 05:33:33;;;;;;;2.45;1.10;;;1.90;99.90;;;;;;5012941;28;19940;-77
2023/03/06 05:36:00;;;;;;;1.67;1.10;;;2.50;99.90;;;;;;5028921;28;20044;-77
2023/03/06 05:38:26;;;;;;;3.08;1.38;;;1.90;99.90;;;;;;5013067;28;20072;-77
2023/03/06 05:40:52;;;;;;;1.67;1.10;;;2.10;99.90;;;;;;5028313;28;20116;-78
2023/03/06 05:43:18;;;;;;;2.35;1.33;;;2.10;99.90;;;;;;5028804;28;20478;-78
2023/03/06 05:45:43;;;;;;;4.57;1.58;;;2.50;99.90;;;;;;5029108;28;20052;-78
2023/03/06 05:48:12;;;;;;;2.20;1.30;;;2.10;99.90;;;;;;5026312;28;20045;-78
2023/03/06 05:50:38;;;;;;;2.28;1.15;;;3.00;99.90;;;;;;5012717;28;20076;-81
2023/03/06 05:53:03;;;;;;;3.00;1.42;;;2.70;99.90;;;;;;5012034;28;20054;-80
2023/03/06 05:55:30;;;;;;;4.32;1.70;;;1.80;99.90;;;;;;5027917;28;20037;-80
2023/03/06 05:57:55;;;;;;;;;;;1.90;99.90;;;;;;5028795;28;20501;-80
2023/03/06 06:00:21;;;;;;;3.78;1.30;;;3.00;99.90;;;;;;5029306;28;19917;-80
2023/03/06 06:02:47;;;;;;;4.00;1.67;;;1.80;99.90;;;;;;5012517;28;20037;-80
2023/03/06 06:05:13;;;;;;;2.65;1.17;;;1.90;99.90;;;;;;5028365;28;20083;-81
2023/03/06 06:07:40;;;;;;;2.10;1.27;;;1.80;99.90;;;;;;5012050;28;20046;-80
2023/03/06 06:10:07;;;;;;;3.72;1.40;;;1.80;99.90;;;;;;5011651;28;20073;-80
2023/03/06 06:12:33;;;;;;;2.63;1.45;;;1.70;99.90;;;;;;5012646;28;20124;-80
2023/03/06 06:14:58;;;;;;;4.07;1.45;;;1.70;99.90;;;;;;5011940;28;20175;-80
2023/03/06 06:17:24;;;;;;;3.47;1.30;;;2.60;99.90;;;;;;5028527;28;20042;-80
2023/03/06 06:19:50;;;;;;;6.63;1.70;;;1.60;99.90;;;;;;5028416;28;20120;-79
2023/03/06 06:22:15;;;;;;;3.53;1.40;;;1.60;99.90;;;;;;4979511;28;20508;-79
2023/03/06 06:24:41;;;;;;;6.05;1.42;;;1.50;99.90;;;;;;5028197;28;20425;-79
2023/03/06 06:27:07;;;;;;;3.05;1.60;;;1.50;99.90;;;;;;5028435;28;20041;-79
2023/03/06 06:29:33;;;;;;;2.92;1.85;;;1.50;99.90;;;;;;5012623;28;20543;-79
2023/03/06 06:31:59;;;;;;;3.95;1.88;;;1.50;99.90;;;;;;5012275;28;20076;-80
2023/03/06 06:34:26;;;;;;;5.57;1.60;;;1.40;99.90;;;;;;5028229;28;20095;-80
2023/03/06 06:36:53;;;;;;;;;;;1.40;99.90;;;;;;5028767;28;20043;-80
2023/03/06 06:39:20;;;;;;;3.03;1.70;;;1.40;99.90;;;;;;5011622;28;19917;-80
2023/03/06 06:41:47;;;;;;;2.97;1.70;;;2.00;99.90;;;;;;5011883;28;20030;-80
2023/03/06 06:44:14;;;;;;;7.05;1.98;;;1.40;99.90;;;;;;5027530;28;20049;-80
2023/03/06 06:46:43;;;;;;;4.57;1.83;;;1.50;99.90;;;;;;5011696;28;20040;-80
2023/03/06 06:49:12;;;;;;;2.67;1.60;;;1.40;99.90;;;;;;5027478;28;20103;-80
2023/03/06 06:51:39;;;;;;;3.25;1.70;;;1.30;99.90;;;;;;5027676;28;20033;-81
2023/03/06 06:54:05;;;;;;;4.93;1.85;;;1.30;99.90;;;;;;5010822;28;20061;-80
2023/03/06 06:56:31;;;;;;;2.13;1.42;;;1.30;99.90;;;;;;5011664;28;20076;-81
2023/03/06 06:59:00;;;;;;;2.83;1.65;;;1.30;99.90;;;;;;5027888;28;20081;-81
2023/03/06 07:01:26;;;;;;;3.00;1.52;;;1.40;99.90;;;;;;5011170;28;20116;-81
2023/03/06 07:03:52;;;;;;;5.28;2.00;;;2.70;99.90;;;;;;5028141;28;20433;-81
2023/03/06 07:06:17;;;;;;;2.97;1.92;;;1.60;99.90;;;;;;4994723;28;20048;-81
2023/03/06 07:08:43;;;;;;;2.70;1.75;;;1.70;99.90;;;;;;4994969;28;20100;-81
2023/03/06 07:11:16;;;;;;;4.82;1.90;;;1.70;99.90;;;;;;4995124;28;20029;-81
2023/03/06 07:13:42;;;;;;;3.53;2.10;;;2.50;99.90;;;;;;5011576;28;20034;-81
2023/03/06 07:16:08;;;;;;;5.63;1.55;;;2.10;99.90;;;;;;5010806;28;20038;-81
2023/03/06 07:18:33;;;;;;;3.05;1.90;;;2.70;99.90;;;;;;5011367;28;20527;-81
2023/03/06 07:20:59;;;;;;;2.92;1.60;;;2.60;99.90;;;;;;5027555;28;20120;-81
2023/03/06 07:23:25;;;;;;;2.70;1.87;;;3.30;99.90;;;;;;5027079;28;20048;-81
2023/03/06 07:25:54;;;;;;;3.17;1.92;;;3.10;99.90;;;;;;5011345;28;20656;-81
2023/03/06 07:28:20;;;;;;;3.33;1.70;;;2.30;99.90;;;;;;5010831;28;20047;-81
2023/03/06 07:30:46;;;;;;;3.90;1.80;;;2.30;99.90;;;;;;5011246;28;20037;-81
2023/03/06 07:33:13;;;;;;;3.10;1.85;;;2.50;99.90;;;;;;5027020;28;20033;-81
2023/03/06 07:35:40;;;;;;;4.00;2.17;;;2.40;99.90;;;;;;5027391;28;20038;-81
2023/03/06 07:38:06;;;;;;;3.45;1.90;;;2.60;99.90;;;;;;5010978;28;20046;-81
2023/03/06 07:40:31;;;;;;;4.93;2.50;;;2.70;99.90;;;;;;5027661;28;20091;-81
2023/03/06 07:42:57;;;;;;;4.70;2.20;;;3.70;99.90;;;;;;5011245;28;20383;-81
2023/03/06 07:45:24;;;;;;;3.55;2.45;;;3.00;99.90;;;;;;5010868;28;20045;-81
2023/03/06 07:47:50;;;;;;;6.47;2.28;;;3.10;99.90;;;;;;5027262;28;20046;-81
2023/03/06 07:50:17;;;;;;;2.60;2.00;;;3.40;99.90;;;;;;5010623;28;20044;-81
2023/03/06 07:52:42;;;;;;;4.22;1.85;;;3.40;99.90;;;;;;5027397;28;20247;-80
2023/03/06 07:55:09;;;;;;;3.53;2.40;;;3.70;99.90;;;;;;4994371;28;20490;-81
2023/03/06 07:57:36;;;;;;;2.95;1.80;;;3.60;99.90;;;;;;5027481;28;20110;-81
2023/03/06 08:00:03;;;;;;;3.58;2.10;;;3.60;99.90;;;;;;4994768;28;20135;-81
2023/03/06 08:02:29;;;;;;;3.28;2.30;;;3.80;99.90;;;;;;5027349;28;20597;-81
2023/03/06 08:04:55;;;;;;;4.03;2.00;;;4.70;99.90;;;;;;5012784;28;20188;-81
2023/03/06 08:07:22;;;;;;;3.25;1.75;;;5.40;99.90;;;;;;4998242;28;20780;-81
2023/03/06 08:09:47;;;;;;;;;;;6.30;99.90;;;;;;5031758;28;20100;-81
2023/03/06 08:12:13;;;;;;;2.85;1.40;;;7.00;99.90;;;;;;5030999;28;19979;-81
2023/03/06 08:14:39;;;;;;;1.58;1.23;;;7.40;99.90;;;;;;5031144;28;20120;-80
2023/03/06 08:17:04;;;;;;;2.27;0.90;;;7.90;99.90;;;;;;5030756;28;20038;-80
2023/03/06 08:19:30;;;;;;;3.83;1.25;;;7.80;99.90;;;;;;4981662;28;20033;-80
2023/03/06 08:21:56;;;;;;;1.23;0.90;;;8.10;99.90;;;;;;5030900;28;20049;-79
2023/03/06 08:24:22;;;;;;;2.25;1.00;;;8.00;99.90;;;;;;4998077;28;20036;-80
2023/03/06 08:26:48;;;;;;;0.93;0.70;;;8.30;99.90;;;;;;5014226;28;20127;-80
2023/03/06 08:29:14;;;;;;;1.65;0.90;;;8.40;99.90;;;;;;5013699;28;20418;-80
2023/03/06 08:31:45;;;;;;;1.65;0.77;;;8.50;99.90;;;;;;5014764;28;20041;-80
2023/03/06 08:34:17;;;;;;;0.90;0.70;;;8.60;99.90;;;;;;4997290;28;20044;-80
2023/03/06 08:36:43;;;;;;;2.00;0.82;;;8.50;99.90;;;;;;5030715;28;20481;-80
2023/03/06 08:39:09;;;;;;;1.95;0.70;;;8.20;99.90;;;;;;5013876;28;20124;-80
2023/03/06 08:41:36;;;;;;;3.58;1.45;;;7.60;99.90;;;;;;5013823;28;20033;-80
2023/03/06 08:44:03;;;;;;;1.40;0.80;;;7.30;99.90;;;;;;5030235;28;20041;-80
2023/03/06 08:46:29;;;;;;;1.50;0.90;;;7.10;99.90;;;;;;5029984;28;20067;-80
2023/03/06 08:48:56;;;;;;;1.92;0.70;;;7.40;99.90;;;;;;5013650;28;20398;-80
2023/03/06 08:51:21;;;;;;;;;;;8.10;99.90;;;;;;5030535;28;20034;-80
2023/03/06 08:53:48;;;;;;;1.40;0.80;;;8.80;99.90;;;;;;5029999;28;19921;-80
2023/03/06 08:56:18;;;;;;;;;;;9.20;99.90;;;;;;4997431;28;20041;-80
2023/03/06 08:58:43;;;;;;;4.82;0.82;;;9.70;99.90;;;;;;5013854;28;19923;-80
2023/03/06 09:01:18;;;;;;;3.23;0.80;;;10.30;99.90;;;;;;4979691;28;20120;-80
2023/03/06 09:03:44;;;;;;;3.42;0.90;;;10.40;99.90;;;;;;5014125;28;20349;-80
2023/03/06 09:06:11;;;;;;;2.50;0.73;;;11.00;99.90;;;;;;5013702;28;20132;-81
2023/03/06 09:08:37;;;;;;;2.72;0.60;;;11.40;99.90;;;;;;5013127;28;20092;-81
2023/03/06 09:11:03;;;;;;;2.28;0.60;;;11.80;99.90;;;;;;4997318;28;20162;-80
2023/03/06 09:13:28;;;;;;;4.82;0.60;;;12.30;99.90;;;;;;5029594;28;20124;-81
2023/03/06 09:15:54;;;;;;;2.38;0.70;;;12.30;99.90;;;;;;4995718;28;20033;-81
2023/03/06 09:18:20;;;;;;;2.85;0.63;;;12.10;99.90;;;;;;4979657;28;20108;-81
2023/03/06 09:20:45;;;;;;;4.05;0.80;;;12.50;99.90;;;;;;5029850;28;20080;-80
2023/03/06 09:23:11;;;;;;;2.22;0.65;;;12.40;99.90;;;;;;5029615;28;20144;-81
2023/03/06 09:25:37;;;;;;;2.47;0.60;;;11.90;99.90;;;;;;4996357;28;20497;-81
2023/03/06 09:28:02;;;;;;;3.42;0.95;;;11.70;99.90;;;;;;4996932;28;20042;-81
2023/03/06 09:30:28;;;;;;;4.90;0.80;;;11.40;99.90;;;;;;5012551;28;20099;-81
2023/03/06 09:32:54;;;;;;;1.52;0.55;;;11.50;99.90;;;;;;4996329;28;20549;-81
2023/03/06 09:35:19;;;;;;;3.47;0.63;;;11.50;99.90;;;;;;4996576;28;20030;-81
2023/03/06 09:37:45;;;;;;;3.40;0.50;;;11.50;99.90;;;;;;4996581;28;20359;-81
2023/03/06 09:40:52;;;;;;;1.60;0.60;;;11.50;99.90;;;;;;4996335;28;20060;-81
2023/03/06 09:43:24;;;;;;;1.05;0.40;;;11.40;99.90;;;;;;4986145;28;20509;-81
2023/03/06 09:45:50;;;;;;;4.65;0.70;;;11.70;99.90;;;;;;5029216;28;20037;-80
2023/03/06 09:48:19;;;;;;;3.75;0.60;;;11.80;99.90;;;;;;5028882;28;20041;-80
2023/03/06 09:51:01;;;;;;;2.53;0.50;;;11.80;99.90;;;;;;5029918;28;20127;-81
2023/03/06 09:53:54;;;;;;;2.40;0.63;;;11.60;99.90;;;;;;5028619;28;20057;-81
2023/03/06 09:56:23;;;;;;;1.90;0.30;;;11.70;99.90;;;;;;5012417;28;20390;-81
2023/03/06 09:58:58;;;;;;;4.15;0.40;;;11.70;99.90;;;;;;5010901;28;20429;-81
2023/03/06 10:01:28;;;;;;;1.30;0.38;;;12.10;99.90;;;;;;5011987;28;20457;-81
2023/03/06 10:04:02;;;;;;;5.20;0.50;;;12.70;99.50;;;;;;5028814;28;20096;-81
2023/03/06 10:06:57;;;;;;;2.90;0.30;;;13.30;98.90;;;;;;5012230;28;20158;-81
2023/03/06 10:09:47;;;;;;;1.63;0.20;;;13.00;99.00;;;;;;5024346;28;20050;-81
2023/03/06 10:12:51;;;;;;;2.80;0.50;;;13.20;95.80;;;;;;5012535;28;20077;-81
2023/03/06 10:15:25;;;;;;;0.80;0.30;;;13.10;99.70;;;;;;4979766;28;20045;-81
2023/03/06 10:17:52;;;;;;;1.65;0.17;;;13.40;99.60;;;;;;5012196;28;20067;-81
2023/03/06 10:20:20;;;;;;;;;;;14.10;97.20;;;;;;5026364;28;20088;-80
2023/03/06 10:23:05;;;;;;;1.70;0.20;;;14.60;95.80;;;;;;5012431;28;20403;-81
2023/03/06 10:25:50;;;;;;;24.23;2.75;;;15.10;95.90;;;;;;5028116;28;20069;-81
2023/03/06 10:28:31;;;;;;;1.17;0.20;;;15.10;97.30;;;;;;5025878;28;20056;-81
2023/03/06 10:31:23;;;;;;;2.00;0.32;;;15.10;95.90;;;;;;5028270;28;20136;-81
2023/03/06 10:34:11;;;;;;;2.47;0.50;;;15.10;95.90;;;;;;5012133;28;20500;-81
2023/03/06 10:36:37;;;;;;;26.63;3.28;;;15.50;95.50;;;;;;5011595;28;20033;-81
2023/03/06 10:39:12;;;;;;;19.70;2.00;;;15.80;96.40;;;;;;4997891;28;20051;-81
2023/03/06 10:41:38;;;;;;;0.68;0.20;;;16.10;96.00;;;;;;5027000;28;20471;-81
2023/03/06 10:44:04;;;;;;;3.10;0.35;;;16.50;95.20;;;;;;5011843;28;20127;-81
2023/03/06 10:46:38;;;;;;;2.10;0.30;;;16.60;94.00;;;;;;5011828;28;20045;-81
2023/03/06 10:49:20;;;;;;;1.45;0.20;;;16.30;93.50;;;;;;5028019;28;20436;-81
2023/03/06 10:51:55;;;;;;;6.03;0.60;;;16.20;93.10;;;;;;5011270;28;20041;-81
2023/03/06 10:54:21;;;;;;;2.92;0.20;;;16.00;93.40;;;;;;5027909;28;20077;-81
2023/03/06 10:56:47;;;;;;;7.18;0.70;;;15.60;92.90;;;;;;4979297;28;20500;-81
2023/03/06 10:59:27;;;;;;;4.68;0.32;;;15.30;94.10;;;;;;5011643;28;20041;-80
2023/03/06 11:01:57;;;;;;;0.35;0.10;;;15.10;93.10;;;;;;5011905;28;20049;-81
2023/03/06 11:04:33;;;;;;;0.50;0.20;;;15.20;92.50;;;;;;5011685;28;20041;-81
2023/03/06 11:07:04;;;;;;;;;;;14.50;92.90;;;;;;4995711;28;20509;-80
2023/03/06 11:09:32;;;;;;;5.35;0.40;;;14.10;94.20;;;;;;5060578;28;20015;-81
2023/03/06 11:12:39;;;;;;;26.92;2.35;;;14.20;93.60;;;;;;4994935;28;20033;-81
2023/03/06 11:15:17;;;;;;;2.13;0.30;;;15.10;94.90;;;;;;4951939;28;20046;-80
2023/03/06 11:17:54;;;;;;;3.47;0.40;;;15.80;93.00;;;;;;5004696;28;20068;-81
2023/03/06 11:20:27;;;;;;;1.70;0.20;;;16.10;93.50;;;;;;5027934;28;20072;-80
2023/03/06 11:23:06;;;;;;;1.33;0.30;;;16.00;93.80;;;;;;5011485;28;20562;-81
2023/03/06 11:25:39;;;;;;;1.75;0.40;;;16.30;93.50;;;;;;5011208;28;20489;-81
2023/03/06 11:28:19;;;;;;;1.05;0.30;;;16.90;93.30;;;;;;5010937;28;20056;-81
2023/03/06 11:30:53;;;;;;;1.85;0.30;;;16.60;92.40;;;;;;5011323;28;20540;-81
2023/03/06 11:33:29;;;;;;;2.45;0.30;;;15.90;92.10;;;;;;5027655;28;20482;-81
2023/03/06 11:36:21;;;;;;;0.90;0.10;;;15.20;93.60;;;;;;5027554;28;20049;-81
2023/03/06 11:38:52;;;;;;;0.95;0.30;;;15.80;92.30;;;;;;5001656;28;20059;-81
2023/03/06 11:41:58;;;;;;;1.60;0.40;;;16.80;92.20;;;;;;4998590;28;20081;-81
2023/03/06 11:44:49;;;;;;;2.28;0.30;;;17.10;92.10;;;;;;5014820;28;20033;-81
2023/03/06 11:47:31;;;;;;;2.67;0.40;;;17.20;90.80;;;;;;5014980;28;20127;-81
2023/03/06 11:50:14;;;;;;;1.77;0.35;;;17.50;92.00;;;;;;5047468;28;20037;-81
2023/03/06 11:53:04;;;;;;;2.05;0.28;;;17.80;91.40;;;;;;5014799;28;20452;-81
2023/03/06 11:55:36;;;;;;;2.15;0.45;;;17.40;90.90;;;;;;5012823;28;20478;-81
2023/03/06 11:58:16;;;;;;;1.95;0.52;;;17.10;92.10;;;;;;5014537;28;20045;-81
2023/03/06 12:01:00;;;;;;;1.77;0.40;;;15.90;92.80;;;;;;5030780;28;20049;-81
2023/03/06 12:03:45;;;;;;;1.15;0.30;;;15.10;93.50;;;;;;5031005;28;20095;-81
2023/03/06 12:06:45;;;;;;;2.00;0.40;;;14.10;94.60;;;;;;5013217;28;20037;-81
2023/03/06 12:09:18;;;;;;;1.30;0.30;;;13.60;94.80;;;;;;5031015;28;20551;-81
2023/03/06 12:12:23;;;;;;;3.30;0.30;;;13.30;95.40;;;;;;5014089;28;20048;-81
2023/03/06 12:14:55;;;;;;;4.47;0.40;;;12.90;96.10;;;;;;5035982;28;20124;-84
2023/03/06 12:17:44;;;;;;;0.50;0.30;;;12.40;95.50;;;;;;5017978;28;20085;-84
2023/03/06 12:20:23;;;;;;;1.75;0.35;;;12.30;95.50;;;;;;5033483;28;20045;-84
2023/03/06 12:22:51;;;;;;;1.23;0.30;;;13.10;94.80;;;;;;5016806;28;20041;-84
2023/03/06 12:25:28;;;;;;;2.15;0.30;;;13.80;94.50;;;;;;5017481;28;20160;-83
2023/03/06 12:28:12;;;;;;;1.95;0.45;;;14.20;93.70;;;;;;5034370;28;20187;-84
2023/03/06 12:31:11;;;;;;;1.65;0.45;;;14.00;92.90;;;;;;5017293;28;20155;-85
2023/03/06 12:33:58;;;;;;;1.27;0.40;;;13.20;93.60;;;;;;5049825;28;20037;-83
2023/03/06 12:36:58;;;;;;;1.13;0.40;;;12.50;94.40;;;;;;5031418;28;20091;-84
2023/03/06 12:39:42;;;;;;;1.33;0.30;;;12.10;94.60;;;;;;5031728;28;20147;-84
2023/03/06 12:42:28;;;;;;;1.35;0.30;;;12.00;94.60;;;;;;5017294;28;20046;-84
2023/03/06 12:45:07;;;;;;;2.15;0.30;;;11.70;95.40;;;;;;4977019;28;20064;-84
2023/03/06 12:47:42;;;;;;;0.77;0.30;;;11.50;95.40;;;;;;5016978;28;20099;-85
2023/03/06 12:50:25;;;;;;;2.15;0.50;;;11.30;95.30;;;;;;5015527;28;20049;-85
2023/03/06 12:52:54;;;;;;;3.13;0.50;;;11.20;95.10;;;;;;5064711;28;20544;-85
2023/03/06 12:55:21;;;;;;;0.25;0.20;;;11.30;94.80;;;;;;5015379;28;20057;-85
2023/03/06 12:57:47;;;;;;;1.75;0.40;;;11.30;95.20;;;;;;5016088;28;20041;-85
2023/03/06 13:00:32;;;;;;;3.42;1.33;;;11.40;94.80;;;;;;5015738;28;20183;-85
2023/03/06 13:03:16;;;;;;;2.40;0.30;;;11.60;94.50;;;;;;5030703;28;20171;-85
2023/03/06 13:06:02;;;;;;;0.52;0.25;;;11.80;94.60;;;;;;5014895;28;20086;-85
2023/03/06 13:09:00;;;;;;;1.20;0.20;;;11.80;93.90;;;;;;5002804;28;20042;-84
2023/03/06 13:11:50;;;;;;;1.33;0.25;;;12.00;94.90;;;;;;5011473;28;20045;-85